createdAt,value
2023-02-14T00:01:34.088Z,7.72
2023-02-14T00:04:02.309Z,7.40
2023-02-14T00:06:35.215Z,7.40
2023-02-14T00:09:04.062Z,7.80
2023-02-14T00:11:32.288Z,8.05
2023-02-14T00:14:18.092Z,8.05
2023-02-14T00:16:47.688Z,7.47
2023-02-14T00:19:17.506Z,8.88
2023-02-14T00:21:45.725Z,7.72
2023-02-14T00:24:15.675Z,7.80
2023-02-14T00:26:44.427Z,9.48
2023-02-14T00:29:15.053Z,8.40
2023-02-14T00:31:43.394Z,7.88
2023-02-14T00:34:14.103Z,7.57
2023-02-14T00:36:42.406Z,8.20
2023-02-14T00:39:12.275Z,8.00
2023-02-14T00:41:41.019Z,8.85
2023-02-14T00:44:11.045Z,8.32
2023-02-14T00:46:39.710Z,8.40
2023-02-14T00:49:07.885Z,9.05
2023-02-14T00:51:37.415Z,9.40
2023-02-14T00:54:06.043Z,7.85
2023-02-14T00:56:34.218Z,9.20
2023-02-14T00:59:02.411Z,8.50
2023-02-14T01:01:30.609Z,8.15
2023-02-14T01:03:59.964Z,8.00
2023-02-14T01:06:28.230Z,9.15
2023-02-14T01:08:57.834Z,9.93
2023-02-14T01:11:27.757Z,8.88
2023-02-14T01:13:58.487Z,9.07
2023-02-14T01:16:30.249Z,9.18
2023-02-14T01:19:03.676Z,9.30
2023-02-14T01:21:33.855Z,8.63
2023-02-14T01:24:06.181Z,8.85
2023-02-14T01:26:35.890Z,9.32
2023-02-14T01:29:05.131Z,9.38
2023-02-14T01:31:34.691Z,10.23
2023-02-14T01:34:02.988Z,9.52
2023-02-14T01:36:33.527Z,8.50
2023-02-14T01:39:05.919Z,8.55
2023-02-14T01:41:35.840Z,9.73
2023-02-14T01:44:06.731Z,9.95
2023-02-14T01:46:37.994Z,8.27
2023-02-14T01:49:10.696Z,9.15
2023-02-14T01:51:42.274Z,9.30
2023-02-14T01:54:13.280Z,8.95
2023-02-14T01:56:46.546Z,9.27
2023-02-14T01:59:20.608Z,8.10
2023-02-14T02:01:51.128Z,8.93
2023-02-14T02:04:24.037Z,7.70
2023-02-14T02:06:56.067Z,8.30
2023-02-14T02:09:32.081Z,9.18
2023-02-14T02:12:00.634Z,8.73
2023-02-14T02:14:28.985Z,9.10
2023-02-14T02:17:15.055Z,9.13
2023-02-14T02:20:18.578Z,8.48
2023-02-14T02:23:08.521Z,8.48
2023-02-14T02:26:03.937Z,8.93
2023-02-14T02:29:03.825Z,8.65
2023-02-14T02:32:09.424Z,9.88
2023-02-14T02:35:14.823Z,9.55
2023-02-14T02:37:54.798Z,9.13
2023-02-14T02:40:34.946Z,9.23
2023-02-14T02:43:16.437Z,9.05
2023-02-14T02:46:09.635Z,9.90
2023-02-14T02:48:44.295Z,10.13
2023-02-14T02:51:36.331Z,9.20
2023-02-14T02:54:12.753Z,9.88
2023-02-14T02:56:46.769Z,11.30
2023-02-14T02:59:20.567Z,11.38
2023-02-14T03:01:53.546Z,9.13
2023-02-14T03:04:40.727Z,10.10
2023-02-14T03:07:22.987Z,10.27
2023-02-14T03:09:58.635Z,10.05
2023-02-14T03:13:04.079Z,8.80
2023-02-14T03:15:42.129Z,10.07
2023-02-14T03:18:17.834Z,9.10
2023-02-14T03:20:54.119Z,9.10
2023-02-14T03:23:26.739Z,9.73
2023-02-14T03:26:08.401Z,9.98
2023-02-14T03:28:43.919Z,9.98
2023-02-14T03:31:21.889Z,10.25
2023-02-14T03:33:58.175Z,8.38
2023-02-14T03:36:32.589Z,8.25
2023-02-14T03:39:06.862Z,8.10
2023-02-14T03:41:41.943Z,7.65
2023-02-14T03:44:12.194Z,7.88
2023-02-14T03:46:43.897Z,9.23
2023-02-14T03:49:17.866Z,8.35
2023-02-14T03:51:49.103Z,7.68
2023-02-14T03:54:18.863Z,7.13
2023-02-14T03:56:51.991Z,6.93
2023-02-14T03:59:23.150Z,6.53
2023-02-14T04:01:56.824Z,8.45
2023-02-14T04:04:28.375Z,7.90
2023-02-14T04:06:56.753Z,8.85
2023-02-14T04:09:24.900Z,8.25
2023-02-14T04:11:54.423Z,7.78
2023-02-14T04:14:22.572Z,6.65
2023-02-14T04:17:08.007Z,6.55
2023-02-14T04:19:36.158Z,7.60
2023-02-14T04:22:04.319Z,8.27
2023-02-14T04:24:32.484Z,7.47
2023-02-14T04:27:18.407Z,6.53
2023-02-14T04:29:48.281Z,6.13
2023-02-14T04:32:19.176Z,6.18
2023-02-14T04:34:47.740Z,5.70
2023-02-14T04:37:18.166Z,5.57
2023-02-14T04:39:46.417Z,6.25
2023-02-14T04:42:16.491Z,7.50
2023-02-14T04:44:44.620Z,6.65
2023-02-14T04:47:12.742Z,7.20
2023-02-14T04:49:40.897Z,7.28
2023-02-14T04:52:09.110Z,6.72
2023-02-14T04:54:37.318Z,6.35
2023-02-14T04:57:05.541Z,5.85
2023-02-14T04:59:35.067Z,6.50
2023-02-14T05:02:03.294Z,7.68
2023-02-14T05:04:31.605Z,9.60
2023-02-14T05:06:59.785Z,10.43
2023-02-14T05:09:28.023Z,16.75
2023-02-14T05:11:56.204Z,13.55
2023-02-14T05:14:24.538Z,9.30
2023-02-14T05:16:54.090Z,8.93
2023-02-14T05:19:22.415Z,8.98
2023-02-14T05:21:50.599Z,8.57
2023-02-14T05:24:18.891Z,7.57
2023-02-14T05:26:47.067Z,8.43
2023-02-14T05:29:15.285Z,8.52
2023-02-14T05:31:43.555Z,7.90
2023-02-14T05:34:13.498Z,8.25
2023-02-14T05:36:41.648Z,8.82
2023-02-14T05:39:09.785Z,7.50
2023-02-14T05:44:05.096Z,8.68
2023-02-14T05:46:33.263Z,8.13
2023-02-14T05:49:01.418Z,8.55
2023-02-14T05:51:31.209Z,9.85
2023-02-14T05:54:01.134Z,8.82
2023-02-14T05:56:29.350Z,9.35
2023-02-14T05:58:57.513Z,10.73
2023-02-14T06:01:25.706Z,10.45
2023-02-14T06:03:53.859Z,11.30
2023-02-14T06:06:22.016Z,11.48
2023-02-14T06:08:51.574Z,11.02
2023-02-14T06:11:19.718Z,10.35
2023-02-14T06:13:47.911Z,10.90
2023-02-14T06:16:16.091Z,11.45
2023-02-14T06:18:44.261Z,11.57
2023-02-14T06:21:12.449Z,11.13
2023-02-14T06:23:40.627Z,10.52
2023-02-14T06:26:10.192Z,11.50
2023-02-14T06:28:38.357Z,10.98
2023-02-14T06:31:06.767Z,11.68
2023-02-14T06:33:34.978Z,11.27
2023-02-14T06:36:03.114Z,10.98
2023-02-14T06:38:31.258Z,12.38
2023-02-14T06:41:05.258Z,10.95
2023-02-14T06:43:35.522Z,11.48
2023-02-14T06:46:04.221Z,12.57
2023-02-14T06:48:32.429Z,13.98
2023-02-14T06:51:00.899Z,13.95
2023-02-14T06:53:29.506Z,13.02
2023-02-14T06:55:57.663Z,13.52
2023-02-14T06:58:25.840Z,13.32
2023-02-14T07:00:56.124Z,13.18
2023-02-14T07:03:24.350Z,12.15
2023-02-14T07:05:52.937Z,13.30
2023-02-14T07:08:21.887Z,13.27
2023-02-14T07:10:50.141Z,13.55
2023-02-14T07:13:18.282Z,13.23
2023-02-14T07:15:46.457Z,14.68
2023-02-14T07:18:16.018Z,14.57
2023-02-14T07:20:45.030Z,12.85
2023-02-14T07:23:13.473Z,12.98
2023-02-14T07:25:41.839Z,13.18
2023-02-14T07:28:10.030Z,12.85
2023-02-14T07:30:38.204Z,12.27
2023-02-14T07:33:06.528Z,11.88
2023-02-14T07:35:36.374Z,12.98
2023-02-14T07:38:04.635Z,13.30
2023-02-14T07:40:32.904Z,12.90
2023-02-14T07:43:01.257Z,12.88
2023-02-14T07:45:29.552Z,12.57
2023-02-14T07:48:01.950Z,12.35
2023-02-14T07:50:31.128Z,12.07
2023-02-14T07:53:00.669Z,12.60
2023-02-14T07:55:28.937Z,11.60
2023-02-14T07:57:57.117Z,11.82
2023-02-14T08:00:25.455Z,12.65
2023-02-14T08:02:53.660Z,13.73
2023-02-14T08:05:21.985Z,13.07
2023-02-14T08:07:50.532Z,12.75
2023-02-14T08:10:20.309Z,12.90
2023-02-14T08:13:00.215Z,12.30
2023-02-14T08:15:46.851Z,12.85
2023-02-14T08:18:15.388Z,13.00
2023-02-14T08:20:43.789Z,12.77
2023-02-14T08:23:12.258Z,12.70
2023-02-14T08:25:42.372Z,12.77
2023-02-14T08:28:10.751Z,12.98
2023-02-14T08:30:39.299Z,13.63
2023-02-14T08:33:07.845Z,14.55
2023-02-14T08:35:36.420Z,12.73
2023-02-14T08:38:05.348Z,12.45
2023-02-14T08:40:35.242Z,14.77
2023-02-14T08:43:05.093Z,13.27
2023-02-14T08:45:33.559Z,13.25
2023-02-14T08:48:06.698Z,13.65
2023-02-14T08:50:35.610Z,13.85
2023-02-14T08:53:07.793Z,13.55
2023-02-14T08:55:36.886Z,13.45
2023-02-14T08:58:07.437Z,17.45
2023-02-14T09:00:35.734Z,15.10
2023-02-14T09:03:03.956Z,16.10
2023-02-14T09:05:32.234Z,17.90
2023-02-14T09:08:00.517Z,16.25
2023-02-14T09:10:28.699Z,15.05
2023-02-14T09:12:56.845Z,14.70
2023-02-14T09:15:26.455Z,14.57
2023-02-14T09:17:54.723Z,13.48
2023-02-14T09:20:23.160Z,13.95
2023-02-14T09:22:51.610Z,12.70
2023-02-14T09:25:19.839Z,14.75
2023-02-14T09:27:47.984Z,19.33
2023-02-14T09:30:17.251Z,16.65
2023-02-14T09:32:46.787Z,17.45
2023-02-14T09:35:14.940Z,17.85
2023-02-14T09:37:43.078Z,16.67
2023-02-14T09:40:14.835Z,17.20
2023-02-14T09:43:10.975Z,15.73
2023-02-14T09:45:40.551Z,19.15
2023-02-14T09:48:17.376Z,17.75
2023-02-14T09:50:49.304Z,22.35
2023-02-14T09:55:57.607Z,24.67
2023-02-14T09:58:31.870Z,27.13
2023-02-14T10:01:08.429Z,17.20
2023-02-14T10:03:52.795Z,20.25
2023-02-14T10:06:46.710Z,16.83
2023-02-14T10:09:31.058Z,17.15
2023-02-14T10:12:01.874Z,14.80
2023-02-14T10:14:33.946Z,31.85
2023-02-14T10:17:08.087Z,24.00
2023-02-14T10:19:41.864Z,23.80
2023-02-14T10:22:15.376Z,15.73
2023-02-14T10:24:49.044Z,18.95
2023-02-14T10:27:29.680Z,15.35
2023-02-14T10:29:58.002Z,17.30
2023-02-14T10:32:33.639Z,14.45
2023-02-14T10:35:12.609Z,15.20
2023-02-14T10:37:55.525Z,14.77
2023-02-14T10:40:57.224Z,13.60
2023-02-14T10:43:35.902Z,15.15
2023-02-14T10:46:13.636Z,16.50
2023-02-14T10:48:51.865Z,13.75
2023-02-14T10:51:33.501Z,22.98
2023-02-14T10:56:39.658Z,22.45
2023-02-14T10:59:19.629Z,16.73
2023-02-14T11:01:48.794Z,15.93
2023-02-14T11:04:18.179Z,14.75
2023-02-14T11:06:49.261Z,14.13
2023-02-14T11:09:17.978Z,14.02
2023-02-14T11:11:51.347Z,14.98
2023-02-14T11:14:25.222Z,14.23
2023-02-14T11:16:54.819Z,14.52
2023-02-14T11:19:26.278Z,14.85
2023-02-14T11:21:57.665Z,14.57
2023-02-14T11:24:31.458Z,12.70
2023-02-14T11:27:01.742Z,12.88
2023-02-14T11:29:32.449Z,12.45
2023-02-14T11:32:09.297Z,12.15
2023-02-14T11:34:40.520Z,12.63
2023-02-14T11:37:26.921Z,11.73
2023-02-14T11:39:57.914Z,13.15
2023-02-14T11:42:41.648Z,18.63
2023-02-14T11:45:28.711Z,20.52
2023-02-14T11:48:11.269Z,19.38
2023-02-14T11:50:40.479Z,14.27
2023-02-14T11:53:13.525Z,13.07
2023-02-14T11:55:42.554Z,13.85
2023-02-14T11:58:34.581Z,13.43
2023-02-14T12:01:03.531Z,14.93
2023-02-14T12:03:39.361Z,14.32
2023-02-14T12:06:08.030Z,12.18
2023-02-14T12:08:39.519Z,11.55
2023-02-14T12:11:20.233Z,11.98
2023-02-14T12:13:54.223Z,11.55
2023-02-14T12:16:29.607Z,11.30
2023-02-14T12:19:03.818Z,14.38
2023-02-14T12:21:48.204Z,11.80
2023-02-14T12:24:30.788Z,17.95
2023-02-14T12:27:07.422Z,20.52
2023-02-14T12:29:39.836Z,18.05
2023-02-14T12:32:23.751Z,15.65
2023-02-14T12:34:54.360Z,12.48
2023-02-14T12:37:32.329Z,11.55
2023-02-14T12:40:20.523Z,10.70
2023-02-14T12:43:17.106Z,11.52
2023-02-14T12:46:04.691Z,10.65
2023-02-14T12:48:48.326Z,9.88
2023-02-14T12:51:23.719Z,12.73
2023-02-14T12:53:59.863Z,11.55
2023-02-14T12:56:41.624Z,11.60
2023-02-14T12:59:23.206Z,10.50
2023-02-14T13:02:11.382Z,9.27
2023-02-14T13:04:58.903Z,11.00
2023-02-14T13:07:39.500Z,12.85
2023-02-14T13:10:18.608Z,12.88
2023-02-14T13:12:57.630Z,16.52
2023-02-14T13:15:32.857Z,13.48
2023-02-14T13:18:12.317Z,12.13
2023-02-14T13:20:54.481Z,10.93
2023-02-14T13:25:59.158Z,11.85
2023-02-14T13:28:31.687Z,10.27
2023-02-14T13:31:01.871Z,11.52
2023-02-14T13:33:35.231Z,10.48
2023-02-14T13:36:07.862Z,15.65
2023-02-14T13:38:44.249Z,18.38
2023-02-14T13:41:13.536Z,20.98
2023-02-14T13:43:56.323Z,17.95
2023-02-14T13:46:49.910Z,17.77
2023-02-14T13:49:31.598Z,11.40
2023-02-14T13:52:03.693Z,11.70
2023-02-14T13:54:38.629Z,13.23
2023-02-14T13:57:33.942Z,10.52
2023-02-14T14:00:39.140Z,10.00
2023-02-14T14:03:13.783Z,11.18
2023-02-14T14:06:04.340Z,9.93
2023-02-14T14:08:57.124Z,8.88
2023-02-14T14:12:01.485Z,9.57
2023-02-14T14:14:39.680Z,9.70
2023-02-14T14:17:25.825Z,9.27
2023-02-14T14:19:57.989Z,9.90
2023-02-14T14:22:27.079Z,9.02
2023-02-14T14:25:05.216Z,9.32
2023-02-14T14:27:36.307Z,10.23
2023-02-14T14:30:14.501Z,9.23
2023-02-14T14:32:43.434Z,9.60
2023-02-14T14:35:21.313Z,11.00
2023-02-14T14:37:51.729Z,10.55
2023-02-14T14:40:26.048Z,10.00
2023-02-14T14:42:55.374Z,9.88
2023-02-14T14:45:26.348Z,9.88
2023-02-14T14:47:57.365Z,9.90
2023-02-14T14:50:29.279Z,9.48
2023-02-14T14:55:30.406Z,8.93
2023-02-14T14:58:00.357Z,10.25
2023-02-14T15:00:30.365Z,10.55
2023-02-14T15:03:01.459Z,10.27
2023-02-14T15:05:34.130Z,10.20
2023-02-14T15:08:16.005Z,10.35
2023-02-14T15:10:44.791Z,10.07
2023-02-14T15:13:33.069Z,11.32
2023-02-14T15:16:03.869Z,9.13
2023-02-14T15:18:32.177Z,9.80
2023-02-14T15:21:03.336Z,9.90
2023-02-14T15:23:31.728Z,10.63
2023-02-14T15:25:59.960Z,9.18
2023-02-14T15:28:29.986Z,9.60
2023-02-14T15:31:00.599Z,11.13
2023-02-14T15:33:29.974Z,10.95
2023-02-14T15:36:00.136Z,10.60
2023-02-14T15:38:30.362Z,10.60
2023-02-14T15:41:00.472Z,10.10
2023-02-14T15:43:32.459Z,10.65
2023-02-14T15:46:15.663Z,10.95
2023-02-14T15:48:44.457Z,11.07
2023-02-14T15:51:20.017Z,12.05
2023-02-14T15:53:53.913Z,11.57
2023-02-14T15:56:26.147Z,10.20
2023-02-14T15:59:00.701Z,10.23
2023-02-14T16:01:29.726Z,10.45
2023-02-14T16:04:00.667Z,11.52
2023-02-14T16:06:35.109Z,11.25
2023-02-14T16:09:07.711Z,11.05
2023-02-14T16:11:37.244Z,12.68
2023-02-14T16:14:32.274Z,11.32
2023-02-14T16:17:03.565Z,11.70
2023-02-14T16:19:38.265Z,12.40
2023-02-14T16:22:08.177Z,12.07
2023-02-14T16:24:38.270Z,11.70
2023-02-14T16:27:13.326Z,12.10
2023-02-14T16:29:41.578Z,11.85
2023-02-14T16:32:18.353Z,13.07
2023-02-14T16:34:48.251Z,11.73
2023-02-14T16:37:24.506Z,14.00
2023-02-14T16:39:57.734Z,12.90
2023-02-14T16:42:26.322Z,11.82
2023-02-14T16:44:54.822Z,12.27
2023-02-14T16:47:23.216Z,12.35
2023-02-14T16:49:53.083Z,12.02
2023-02-14T16:52:24.513Z,10.68
2023-02-14T16:54:54.573Z,11.95
2023-02-14T16:57:27.927Z,11.93
2023-02-14T16:59:57.459Z,11.85
2023-02-14T17:02:28.348Z,12.35
2023-02-14T17:04:56.816Z,11.33
2023-02-14T17:07:25.130Z,12.23
2023-02-14T17:09:58.982Z,13.15
2023-02-14T17:12:31.591Z,12.75
2023-02-14T17:15:05.947Z,13.63
2023-02-14T17:17:35.026Z,13.68
2023-02-14T17:20:04.777Z,15.60
2023-02-14T17:22:34.474Z,15.98
2023-02-14T17:25:05.320Z,13.98
2023-02-14T17:27:33.555Z,14.27
2023-02-14T17:30:01.827Z,12.75
2023-02-14T17:32:30.037Z,13.95
2023-02-14T17:34:58.222Z,15.68
2023-02-14T17:37:26.512Z,16.45
2023-02-14T17:39:55.246Z,14.98
2023-02-14T17:42:25.081Z,22.17
2023-02-14T17:44:53.318Z,20.40
2023-02-14T17:47:21.505Z,17.17
2023-02-14T17:49:49.664Z,16.30
2023-02-14T17:52:17.935Z,14.32
2023-02-14T17:54:46.258Z,14.50
2023-02-14T17:57:14.442Z,15.30
2023-02-14T17:59:45.386Z,15.85
2023-02-14T18:02:14.004Z,14.57
2023-02-14T18:04:42.190Z,14.48
2023-02-14T18:07:10.392Z,15.27
2023-02-14T18:09:38.804Z,16.40
2023-02-14T18:12:11.182Z,15.50
2023-02-14T18:14:43.296Z,15.07
2023-02-14T18:17:13.345Z,17.23
2023-02-14T18:19:41.650Z,16.58
2023-02-14T18:22:10.234Z,16.42
2023-02-14T18:24:38.397Z,15.88
2023-02-14T18:27:06.819Z,17.77
2023-02-14T18:29:36.149Z,15.02
2023-02-14T18:32:06.246Z,14.80
2023-02-14T18:34:37.556Z,15.55
2023-02-14T18:37:06.121Z,16.35
2023-02-14T18:39:34.475Z,15.18
2023-02-14T18:42:02.641Z,15.80
2023-02-14T18:44:31.005Z,15.95
2023-02-14T18:47:01.038Z,16.10
2023-02-14T18:49:30.639Z,15.65
2023-02-14T18:51:58.829Z,16.27
2023-02-14T18:54:27.076Z,15.70
2023-02-14T18:56:55.661Z,15.07
2023-02-14T18:59:23.806Z,14.32
2023-02-14T19:01:52.163Z,16.05
2023-02-14T19:04:20.365Z,14.35
2023-02-14T19:06:49.980Z,15.55
2023-02-14T19:09:18.791Z,14.25
2023-02-14T19:11:48.256Z,13.63
2023-02-14T19:14:16.393Z,14.98
2023-02-14T19:16:50.516Z,12.80
2023-02-14T19:19:19.866Z,14.65
2023-02-14T19:21:49.597Z,15.90
2023-02-14T19:24:18.826Z,14.57
2023-02-14T19:26:47.110Z,13.18
2023-02-14T19:29:17.258Z,14.25
2023-02-14T19:31:48.338Z,13.23
2023-02-14T19:34:18.609Z,12.40
2023-02-14T19:36:47.962Z,12.25
2023-02-14T19:39:19.034Z,12.07
2023-02-14T19:41:48.808Z,12.87
2023-02-14T19:44:18.634Z,13.18
2023-02-14T19:46:47.895Z,13.25
2023-02-14T19:49:21.105Z,13.38
2023-02-14T19:51:51.173Z,13.68
2023-02-14T19:54:21.939Z,12.60
2023-02-14T19:56:50.132Z,12.95
2023-02-14T19:59:22.582Z,12.80
2023-02-14T20:01:52.619Z,12.55
2023-02-14T20:04:23.642Z,12.30
2023-02-14T20:06:52.306Z,12.50
2023-02-14T20:09:22.820Z,14.55
2023-02-14T20:11:54.578Z,13.48
2023-02-14T20:14:24.754Z,14.63
2023-02-14T20:16:55.222Z,13.10
2023-02-14T20:19:26.979Z,11.98
2023-02-14T20:21:56.049Z,12.07
2023-02-14T20:24:27.242Z,12.55
2023-02-14T20:26:55.726Z,11.50
2023-02-14T20:29:25.063Z,11.38
2023-02-14T20:31:54.898Z,10.90
2023-02-14T20:34:23.272Z,10.63
2023-02-14T20:36:53.314Z,10.27
2023-02-14T20:39:23.716Z,11.70
2023-02-14T20:41:54.209Z,13.18
2023-02-14T20:44:22.894Z,12.45
2023-02-14T20:46:53.850Z,11.13
2023-02-14T20:49:23.509Z,11.20
2023-02-14T20:51:52.571Z,10.77
2023-02-14T20:54:22.048Z,10.90
2023-02-14T20:56:52.851Z,12.57
2023-02-14T20:59:26.314Z,9.93
2023-02-14T21:01:55.096Z,10.77
2023-02-14T21:04:23.882Z,11.52
2023-02-14T21:06:52.130Z,10.93
2023-02-14T21:09:20.837Z,11.13
2023-02-14T21:11:49.608Z,11.65
2023-02-14T21:14:20.769Z,12.20
2023-02-14T21:16:48.931Z,12.05
2023-02-14T21:19:17.669Z,12.30
2023-02-14T21:21:45.836Z,12.10
2023-02-14T21:24:16.069Z,11.18
2023-02-14T21:26:44.559Z,13.45
2023-02-14T21:29:12.908Z,12.98
2023-02-14T21:31:43.201Z,12.32
2023-02-14T21:34:11.422Z,13.93
2023-02-14T21:36:39.579Z,13.48
2023-02-14T21:39:08.503Z,14.70
2023-02-14T21:41:37.519Z,13.95
2023-02-14T21:44:06.404Z,17.50
2023-02-14T21:46:36.945Z,17.23
2023-02-14T21:49:24.983Z,21.67
2023-02-14T21:51:53.251Z,16.83
2023-02-14T21:54:21.454Z,19.63
2023-02-14T21:56:50.364Z,16.35
2023-02-14T21:59:18.836Z,14.77
2023-02-14T22:01:47.078Z,14.93
2023-02-14T22:04:16.654Z,15.70
2023-02-14T22:06:45.017Z,12.93
2023-02-14T22:09:17.528Z,13.00
2023-02-14T22:11:47.511Z,11.32
2023-02-14T22:14:15.839Z,11.77
2023-02-14T22:16:44.032Z,11.90
2023-02-14T22:19:15.320Z,11.63
2023-02-14T22:21:45.185Z,11.70
2023-02-14T22:24:13.714Z,11.98
2023-02-14T22:26:42.039Z,11.57
2023-02-14T22:29:12.075Z,11.40
2023-02-14T22:31:42.291Z,10.95
2023-02-14T22:34:13.266Z,10.82
2023-02-14T22:36:41.450Z,11.90
2023-02-14T22:39:14.351Z,10.88
2023-02-14T22:41:42.545Z,10.13
2023-02-14T22:44:10.883Z,9.70
2023-02-14T22:46:39.121Z,10.35
2023-02-14T22:49:08.273Z,10.25
2023-02-14T22:51:38.008Z,10.95
2023-02-14T22:54:08.059Z,10.70
2023-02-14T22:56:39.196Z,11.23
2023-02-14T22:59:09.090Z,11.07
2023-02-14T23:01:37.868Z,11.18
2023-02-14T23:04:06.758Z,10.65
2023-02-14T23:06:37.090Z,11.40
2023-02-14T23:09:07.413Z,11.43
2023-02-14T23:11:38.901Z,11.38
2023-02-14T23:14:25.146Z,11.80
2023-02-14T23:17:11.140Z,12.95
2023-02-14T23:19:56.982Z,12.23
2023-02-14T23:22:27.874Z,10.55
2023-02-14T23:24:58.321Z,11.45
2023-02-14T23:27:32.197Z,11.95
2023-02-14T23:30:00.544Z,11.95
2023-02-14T23:32:29.295Z,12.38
2023-02-14T23:34:58.860Z,11.95
2023-02-14T23:37:27.346Z,11.60
2023-02-14T23:39:55.516Z,11.68
2023-02-14T23:42:23.785Z,12.75
2023-02-14T23:44:53.428Z,12.18
2023-02-14T23:47:21.580Z,10.90
2023-02-14T23:49:49.735Z,11.48
2023-02-14T23:52:17.887Z,11.45
2023-02-14T23:54:46.029Z,10.90
2023-02-14T23:57:14.186Z,11.27
2023-02-14T23:59:42.371Z,10.35
